ROMMA est une association bénévole à but non lucratif. Votre soutien est indispensable : ADHERER à ROMMA ou FAIRE un DON

Die - (26, Drôme)

Diois (400 m)   Longitude: 5° 21' 55"E   Latitude: 44° 45' 16"N Station partenaire n°159
 

Détail journalier du     <<     >>

Température Precipitation Humidité Pression Vent Dir Rafale Dir. rafale Ensol.
Heure (°C) (mm) (%) (hPa) (km/h) (km/h) (min)
01:00 13.305510177NO24ONO0
02:00 12.505510178NO24ONO0
03:00 11.905710178ONO26OSO0
04:00 11.705610169ONO35NNO0
05:00 11.505310156NO26O0
06:00 11.0054101510NO27NO0
07:00 10.9056101511NO29NNO0
08:00 10.405610159ONO24N0
09:00 11.305610166O18N0
10:00 12.805410166ONO21SO0
11:00 15.404610166ONO18ONO60
12:00 16.504410166NO19NO60
13:00 17.404210167NO19ONO60
14:00 18.403710156NO19NNO60
15:00 19.903610156NO18NNO60
16:00 19.004010146NO18ONO60
17:00 17.004310146ONO15O30
18:00 16.204810154ONO13ONO0
19:00 14.705410165O16O30
20:00 14.605610166NO19ONO0
21:00 12.106510163NNE11ONO0
22:00 9.407610162SO5SO0
23:00 8.108210161SE6N0
minuit 6.5088101703SE0

Graphique du 03-10-2019

 

Serveur OMMA